Puckett, Mississippi
Current Conditions -  °F | °C
As of 4:54 PM on Wednesday 26 Nov 2014 (Local Time) from KJAN Reporting Station
Few Clouds Few Clouds  
Wind Chill: 64°   Ceiling: Unl
Heat Index: 64°   Visibility: 10mi
Dew Point: 34°   Wind: 15mph
Humidity: 33%   Direction: 230°SW
Pressure: 30.08"   Gusts: 25mph
Location:  32.08°N, 89.78°W
Report Text: KJAN 262254Z 23013G22KT 10SM FEW250 18/01 A3008 RMK AO2 SLP187 T01780011
Loading
Personal Weather Stations






























Interactive Weather Map New forecast layout! Learn more

10-Day Weather Forecast

Advertisements
Track Severe Weather on mobile